DLH9EJ LROP-EDDF
Flight info
| Callsign | DLH9EJ |
|---|---|
| Flight time | 2h 2m |
| Altitude | 38000 |
| Route | SOKRU DCT OXDOC DCT DEGET DCT ARSIN DCT SUBEN DCT AKINI/N0438F360 T161 DEBHI DEBHI1B |
| Aircraft | A320/M-SDE3FGHIRWY/LB1 |
Departure
| Time | 2026-04-18 08:58 |
|---|---|
| Airport | Bucharest Henri Coandă International Airport (LROP) |
Arrival
| Time | 2026-04-18 11:00 |
|---|---|
| Airport | Frankfurt Main Airport (EDDF) |
| Time | Latitude | Longitude | Altitude | Speed | Heading |
|---|---|---|---|---|---|
| 2026-04-18 08:31 | 44.57144 | 26.08112 | 321 ft | 0 kts | 173° |
| 2026-04-18 08:51 | 44.57151 | 26.08111 | 320 ft | 4 kts | 171° |
| 2026-04-18 08:51 | 44.57177 | 26.08101 | 319 ft | 4 kts | 149° |
| 2026-04-18 08:51 | 44.57193 | 26.08079 | 319 ft | 4 kts | 98° |
| 2026-04-18 08:52 | 44.57194 | 26.08068 | 320 ft | 0 kts | 84° |
| 2026-04-18 08:54 | 44.57196 | 26.08095 | 320 ft | 9 kts | 84° |
| 2026-04-18 08:55 | 44.57204 | 26.08196 | 320 ft | 11 kts | 84° |
| 2026-04-18 08:55 | 44.57218 | 26.08314 | 320 ft | 13 kts | 75° |
| 2026-04-18 08:55 | 44.57233 | 26.08443 | 320 ft | 12 kts | 84° |
| 2026-04-18 08:55 | 44.57298 | 26.08495 | 320 ft | 13 kts | 354° |
| 2026-04-18 08:56 | 44.57380 | 26.08483 | 321 ft | 11 kts | 354° |
| 2026-04-18 08:56 | 44.57451 | 26.08472 | 321 ft | 10 kts | 354° |
| 2026-04-18 08:56 | 44.57512 | 26.08463 | 321 ft | 8 kts | 354° |
| 2026-04-18 08:56 | 44.57561 | 26.08457 | 321 ft | 6 kts | 354° |
| 2026-04-18 08:57 | 44.57667 | 26.08470 | 323 ft | 6 kts | 71° |
| 2026-04-18 08:57 | 44.57671 | 26.08533 | 324 ft | 7 kts | 84° |
| 2026-04-18 08:57 | 44.57681 | 26.08665 | 322 ft | 29 kts | 84° |
| 2026-04-18 08:58 | 44.57729 | 26.09292 | 318 ft | 98 kts | 84° |
| 2026-04-18 08:58 | 44.57820 | 26.10510 | 324 ft | 150 kts | 84° |
| 2026-04-18 08:58 | 44.57929 | 26.11993 | 963 ft | 150 kts | 84° |
| 2026-04-18 08:58 | 44.58045 | 26.13477 | 1640 ft | 157 kts | 79° |
| 2026-04-18 08:59 | 44.58182 | 26.15109 | 2014 ft | 180 kts | 80° |
| 2026-04-18 08:59 | 44.58329 | 26.16958 | 2425 ft | 200 kts | 80° |
| 2026-04-18 08:59 | 44.58481 | 26.18939 | 2987 ft | 212 kts | 78° |
| 2026-04-18 08:59 | 44.59016 | 26.20861 | 3616 ft | 220 kts | 45° |
| 2026-04-18 09:00 | 44.60395 | 26.21901 | 4152 ft | 239 kts | 7° |
| 2026-04-18 09:00 | 44.62035 | 26.21409 | 4992 ft | 251 kts | 329° |
| 2026-04-18 09:00 | 44.63318 | 26.19712 | 5994 ft | 255 kts | 315° |
| 2026-04-18 09:00 | 44.64710 | 26.18215 | 6929 ft | 254 kts | 338° |
| 2026-04-18 09:01 | 44.66435 | 26.17587 | 7758 ft | 259 kts | 352° |
| 2026-04-18 09:01 | 44.68246 | 26.17360 | 8624 ft | 263 kts | 356° |
| 2026-04-18 09:01 | 44.70091 | 26.17247 | 9497 ft | 267 kts | 357° |
| 2026-04-18 09:01 | 44.71958 | 26.17132 | 10361 ft | 272 kts | 356° |
| 2026-04-18 09:02 | 44.73897 | 26.16934 | 10694 ft | 294 kts | 351° |
| 2026-04-18 09:02 | 44.75898 | 26.16039 | 11114 ft | 310 kts | 333° |
| 2026-04-18 09:02 | 44.77650 | 26.14218 | 11812 ft | 318 kts | 316° |
| 2026-04-18 09:02 | 44.78969 | 26.11671 | 12572 ft | 325 kts | 304° |
| 2026-04-18 09:03 | 44.80156 | 26.08944 | 13324 ft | 329 kts | 304° |
| 2026-04-18 09:03 | 44.81392 | 26.06108 | 13531 ft | 350 kts | 304° |
| 2026-04-18 09:03 | 44.82710 | 26.03099 | 13672 ft | 369 kts | 304° |
| 2026-04-18 09:03 | 44.84082 | 25.99984 | 13802 ft | 386 kts | 304° |
| 2026-04-18 09:04 | 44.85514 | 25.96731 | 14159 ft | 394 kts | 303° |
| 2026-04-18 09:04 | 44.86735 | 25.93217 | 14615 ft | 401 kts | 293° |
| 2026-04-18 09:04 | 44.87571 | 25.89428 | 15113 ft | 406 kts | 289° |
| 2026-04-18 09:04 | 44.88356 | 25.85632 | 15644 ft | 408 kts | 289° |
| 2026-04-18 09:05 | 44.89161 | 25.81783 | 16161 ft | 410 kts | 289° |
| 2026-04-18 09:05 | 44.89975 | 25.77917 | 16687 ft | 413 kts | 289° |
| 2026-04-18 09:05 | 44.90798 | 25.74015 | 17211 ft | 415 kts | 289° |
| 2026-04-18 09:05 | 44.91622 | 25.70100 | 17709 ft | 417 kts | 289° |
| 2026-04-18 09:06 | 44.92448 | 25.66153 | 18211 ft | 419 kts | 289° |
| 2026-04-18 09:06 | 44.93273 | 25.62192 | 18645 ft | 421 kts | 289° |
| 2026-04-18 09:06 | 44.94088 | 25.58250 | 19003 ft | 424 kts | 289° |
| 2026-04-18 09:06 | 44.94921 | 25.54222 | 19369 ft | 427 kts | 289° |
| 2026-04-18 09:07 | 44.95756 | 25.50181 | 19751 ft | 430 kts | 289° |
| 2026-04-18 09:07 | 44.96594 | 25.46120 | 20131 ft | 432 kts | 289° |
| 2026-04-18 09:07 | 44.97438 | 25.42029 | 20493 ft | 435 kts | 289° |
| 2026-04-18 09:07 | 44.98275 | 25.37966 | 20830 ft | 437 kts | 289° |
| 2026-04-18 09:08 | 44.99125 | 25.33830 | 21189 ft | 439 kts | 289° |
| 2026-04-18 09:08 | 45.00036 | 25.29712 | 21532 ft | 440 kts | 291° |
| 2026-04-18 09:08 | 45.01051 | 25.25620 | 21848 ft | 442 kts | 294° |
| 2026-04-18 09:08 | 45.02136 | 25.21536 | 22129 ft | 445 kts | 295° |
| 2026-04-18 09:09 | 45.03412 | 25.17552 | 22404 ft | 443 kts | 303° |
| 2026-04-18 09:09 | 45.04987 | 25.13801 | 22707 ft | 444 kts | 304° |
| 2026-04-18 09:09 | 45.06553 | 25.10011 | 23011 ft | 447 kts | 303° |
| 2026-04-18 09:09 | 45.08076 | 25.06220 | 23309 ft | 449 kts | 303° |
| 2026-04-18 09:10 | 45.09607 | 25.02341 | 23612 ft | 452 kts | 303° |
| 2026-04-18 09:10 | 45.11134 | 24.98440 | 23876 ft | 453 kts | 303° |
| 2026-04-18 09:10 | 45.12660 | 24.94534 | 24240 ft | 452 kts | 303° |
| 2026-04-18 09:10 | 45.14190 | 24.90638 | 24566 ft | 452 kts | 304° |
| 2026-04-18 09:11 | 45.15713 | 24.86782 | 24873 ft | 452 kts | 304° |
| 2026-04-18 09:11 | 45.17256 | 24.82890 | 25247 ft | 452 kts | 304° |
| 2026-04-18 09:11 | 45.18799 | 24.79003 | 25633 ft | 451 kts | 304° |
| 2026-04-18 09:11 | 45.20333 | 24.75131 | 26023 ft | 450 kts | 304° |
| 2026-04-18 09:12 | 45.21847 | 24.71296 | 26413 ft | 449 kts | 304° |
| 2026-04-18 09:12 | 45.23370 | 24.67429 | 26809 ft | 448 kts | 304° |
| 2026-04-18 09:12 | 45.24893 | 24.63556 | 27196 ft | 447 kts | 304° |
| 2026-04-18 09:12 | 45.26389 | 24.59751 | 27580 ft | 447 kts | 304° |
| 2026-04-18 09:13 | 45.27906 | 24.55885 | 27973 ft | 446 kts | 304° |
| 2026-04-18 09:13 | 45.29415 | 24.52025 | 28377 ft | 445 kts | 304° |
| 2026-04-18 09:13 | 45.30912 | 24.48178 | 28803 ft | 444 kts | 304° |
| 2026-04-18 09:13 | 45.32407 | 24.44335 | 29228 ft | 443 kts | 304° |
| 2026-04-18 09:14 | 45.33395 | 24.41799 | 29518 ft | 443 kts | 304° |
| 2026-04-18 09:14 | 45.34883 | 24.37979 | 29978 ft | 441 kts | 304° |
| 2026-04-18 09:14 | 45.36854 | 24.32917 | 30516 ft | 440 kts | 304° |
| 2026-04-18 09:14 | 45.38332 | 24.29116 | 30865 ft | 439 kts | 304° |
| 2026-04-18 09:15 | 45.39312 | 24.26595 | 31068 ft | 438 kts | 304° |
| 2026-04-18 09:15 | 45.40805 | 24.22747 | 31401 ft | 438 kts | 304° |
| 2026-04-18 09:15 | 45.42257 | 24.18996 | 31732 ft | 437 kts | 303° |
| 2026-04-18 09:15 | 45.43727 | 24.15187 | 32121 ft | 437 kts | 303° |
| 2026-04-18 09:16 | 45.45193 | 24.11380 | 32503 ft | 436 kts | 303° |
| 2026-04-18 09:16 | 45.46655 | 24.07586 | 32834 ft | 436 kts | 303° |
| 2026-04-18 09:16 | 45.48096 | 24.03847 | 33175 ft | 435 kts | 302° |
| 2026-04-18 09:16 | 45.49554 | 24.00058 | 33501 ft | 435 kts | 302° |
| 2026-04-18 09:17 | 45.51010 | 23.96266 | 33839 ft | 434 kts | 302° |
| 2026-04-18 09:17 | 45.52459 | 23.92485 | 34132 ft | 434 kts | 302° |
| 2026-04-18 09:17 | 45.53908 | 23.88700 | 34405 ft | 434 kts | 302° |
| 2026-04-18 09:17 | 45.55337 | 23.84963 | 34670 ft | 434 kts | 302° |
| 2026-04-18 09:18 | 45.56783 | 23.81173 | 34927 ft | 434 kts | 302° |
| 2026-04-18 09:18 | 45.58231 | 23.77370 | 35159 ft | 435 kts | 301° |
| 2026-04-18 09:18 | 45.59675 | 23.73568 | 35384 ft | 435 kts | 301° |
| 2026-04-18 09:18 | 45.61122 | 23.69753 | 35620 ft | 436 kts | 301° |
| 2026-04-18 09:19 | 45.62572 | 23.65932 | 35841 ft | 436 kts | 301° |
| 2026-04-18 09:19 | 45.64004 | 23.62152 | 36056 ft | 437 kts | 301° |
| 2026-04-18 09:19 | 45.65447 | 23.58333 | 36271 ft | 437 kts | 301° |
| 2026-04-18 09:19 | 45.66894 | 23.54498 | 36482 ft | 438 kts | 301° |
| 2026-04-18 09:20 | 45.68340 | 23.50664 | 36688 ft | 438 kts | 301° |
| 2026-04-18 09:20 | 45.69787 | 23.46827 | 36894 ft | 438 kts | 301° |
| 2026-04-18 09:20 | 45.71236 | 23.42980 | 37093 ft | 439 kts | 301° |
| 2026-04-18 09:20 | 45.72682 | 23.39132 | 37296 ft | 439 kts | 300° |
| 2026-04-18 09:21 | 45.74116 | 23.35309 | 37482 ft | 439 kts | 301° |
| 2026-04-18 09:21 | 45.75561 | 23.31455 | 37708 ft | 439 kts | 301° |
| 2026-04-18 09:21 | 45.77004 | 23.27601 | 37885 ft | 439 kts | 301° |
| 2026-04-18 09:21 | 45.78448 | 23.23738 | 38054 ft | 440 kts | 301° |
| 2026-04-18 09:22 | 45.81365 | 23.15916 | 38078 ft | 446 kts | 300° |
| 2026-04-18 09:22 | 45.84282 | 23.08052 | 38090 ft | 446 kts | 300° |
| 2026-04-18 09:23 | 45.87176 | 23.00243 | 38079 ft | 445 kts | 301° |
| 2026-04-18 09:23 | 45.90082 | 22.92380 | 38079 ft | 444 kts | 301° |
| 2026-04-18 09:24 | 45.92959 | 22.84569 | 38076 ft | 444 kts | 301° |
| 2026-04-18 09:24 | 45.95858 | 22.76687 | 38078 ft | 445 kts | 301° |
| 2026-04-18 09:25 | 45.98744 | 22.68811 | 38080 ft | 445 kts | 301° |
| 2026-04-18 09:25 | 46.01604 | 22.60978 | 38080 ft | 445 kts | 301° |
| 2026-04-18 09:26 | 46.04488 | 22.53078 | 38089 ft | 445 kts | 301° |
| 2026-04-18 09:26 | 46.07345 | 22.45217 | 38095 ft | 445 kts | 301° |
| 2026-04-18 09:27 | 46.10208 | 22.37289 | 38069 ft | 445 kts | 300° |
| 2026-04-18 09:27 | 46.13059 | 22.29361 | 38082 ft | 445 kts | 300° |
| 2026-04-18 09:28 | 46.15901 | 22.21479 | 38082 ft | 445 kts | 301° |
| 2026-04-18 09:28 | 46.18761 | 22.13534 | 38089 ft | 445 kts | 300° |
| 2026-04-18 09:29 | 46.21591 | 22.05609 | 38086 ft | 446 kts | 300° |
| 2026-04-18 09:29 | 46.24444 | 21.97629 | 38088 ft | 446 kts | 300° |
| 2026-04-18 09:30 | 46.27279 | 21.89692 | 38101 ft | 446 kts | 300° |
| 2026-04-18 09:30 | 46.30124 | 21.81664 | 38108 ft | 447 kts | 300° |
| 2026-04-18 09:31 | 46.32937 | 21.73689 | 38121 ft | 447 kts | 300° |
| 2026-04-18 09:31 | 46.35758 | 21.65678 | 38129 ft | 447 kts | 300° |
| 2026-04-18 09:32 | 46.38562 | 21.57688 | 38129 ft | 446 kts | 300° |
| 2026-04-18 09:32 | 46.41399 | 21.49617 | 38137 ft | 446 kts | 300° |
| 2026-04-18 09:33 | 46.44191 | 21.41634 | 38139 ft | 446 kts | 300° |
| 2026-04-18 09:33 | 46.46996 | 21.33569 | 38137 ft | 446 kts | 300° |
| 2026-04-18 09:34 | 46.49702 | 21.25453 | 38143 ft | 448 kts | 294° |
| 2026-04-18 09:34 | 46.51896 | 21.17044 | 38144 ft | 448 kts | 294° |
| 2026-04-18 09:35 | 46.54113 | 21.08572 | 38150 ft | 448 kts | 294° |
| 2026-04-18 09:35 | 46.56328 | 21.00088 | 38138 ft | 448 kts | 294° |
| 2026-04-18 09:36 | 46.58507 | 20.91664 | 38149 ft | 447 kts | 294° |
| 2026-04-18 09:36 | 46.60686 | 20.83181 | 38164 ft | 447 kts | 294° |
| 2026-04-18 09:37 | 46.62868 | 20.74698 | 38160 ft | 447 kts | 294° |
| 2026-04-18 09:37 | 46.65043 | 20.66224 | 38154 ft | 447 kts | 294° |
| 2026-04-18 09:38 | 46.67213 | 20.57753 | 38163 ft | 446 kts | 294° |
| 2026-04-18 09:38 | 46.69361 | 20.49320 | 38170 ft | 446 kts | 294° |
| 2026-04-18 09:39 | 46.71509 | 20.40841 | 38173 ft | 445 kts | 294° |
| 2026-04-18 09:39 | 46.73639 | 20.32408 | 38176 ft | 445 kts | 294° |
| 2026-04-18 09:40 | 46.75778 | 20.23918 | 38173 ft | 445 kts | 294° |
| 2026-04-18 09:40 | 46.77908 | 20.15415 | 38184 ft | 445 kts | 294° |
| 2026-04-18 09:41 | 46.80017 | 20.06974 | 38187 ft | 445 kts | 294° |
| 2026-04-18 09:41 | 46.82136 | 19.98474 | 38193 ft | 445 kts | 294° |
| 2026-04-18 09:42 | 46.84240 | 19.89954 | 38189 ft | 445 kts | 294° |
| 2026-04-18 09:42 | 46.86325 | 19.81497 | 38201 ft | 444 kts | 294° |
| 2026-04-18 09:43 | 46.88421 | 19.72996 | 38205 ft | 444 kts | 294° |
| 2026-04-18 09:43 | 46.90512 | 19.64481 | 38190 ft | 444 kts | 294° |
| 2026-04-18 09:44 | 46.92575 | 19.56029 | 38166 ft | 443 kts | 295° |
| 2026-04-18 09:44 | 46.94647 | 19.47515 | 38184 ft | 443 kts | 295° |
| 2026-04-18 09:45 | 46.96704 | 19.39009 | 38188 ft | 443 kts | 295° |
| 2026-04-18 09:45 | 46.98752 | 19.30507 | 38191 ft | 442 kts | 295° |
| 2026-04-18 09:46 | 47.00795 | 19.22001 | 38190 ft | 442 kts | 295° |
| 2026-04-18 09:46 | 47.02815 | 19.13553 | 38172 ft | 442 kts | 295° |
| 2026-04-18 09:47 | 47.04852 | 19.05032 | 38196 ft | 442 kts | 295° |
| 2026-04-18 09:47 | 47.06879 | 18.96527 | 38197 ft | 441 kts | 295° |
| 2026-04-18 09:48 | 47.08884 | 18.88062 | 38195 ft | 441 kts | 295° |
| 2026-04-18 09:48 | 47.10890 | 18.79547 | 38173 ft | 440 kts | 295° |
| 2026-04-18 09:49 | 47.12885 | 18.71040 | 38182 ft | 440 kts | 295° |
| 2026-04-18 09:49 | 47.14873 | 18.62568 | 38186 ft | 440 kts | 295° |
| 2026-04-18 09:50 | 47.16844 | 18.54101 | 38190 ft | 440 kts | 295° |
| 2026-04-18 09:50 | 47.18820 | 18.45588 | 38159 ft | 439 kts | 295° |
| 2026-04-18 09:51 | 47.20789 | 18.37074 | 38183 ft | 439 kts | 295° |
| 2026-04-18 09:51 | 47.22735 | 18.28631 | 38197 ft | 438 kts | 295° |
| 2026-04-18 09:52 | 47.24688 | 18.20127 | 38198 ft | 438 kts | 295° |
| 2026-04-18 09:52 | 47.26631 | 18.11627 | 38202 ft | 438 kts | 295° |
| 2026-04-18 09:53 | 47.28555 | 18.03173 | 38181 ft | 437 kts | 295° |
| 2026-04-18 09:53 | 47.30481 | 17.94661 | 38202 ft | 437 kts | 295° |
| 2026-04-18 09:54 | 47.32397 | 17.86166 | 38196 ft | 436 kts | 295° |
| 2026-04-18 09:54 | 47.34313 | 17.77679 | 38219 ft | 436 kts | 295° |
| 2026-04-18 09:55 | 47.36206 | 17.69231 | 38205 ft | 435 kts | 294° |
| 2026-04-18 09:55 | 47.38097 | 17.60754 | 38217 ft | 435 kts | 294° |
| 2026-04-18 09:56 | 47.39986 | 17.52271 | 38226 ft | 434 kts | 294° |
| 2026-04-18 09:56 | 47.41852 | 17.43830 | 38234 ft | 434 kts | 294° |
| 2026-04-18 09:57 | 47.43722 | 17.35337 | 38232 ft | 433 kts | 294° |
| 2026-04-18 09:57 | 47.45574 | 17.26925 | 38196 ft | 433 kts | 294° |
| 2026-04-18 09:58 | 47.47423 | 17.18461 | 38211 ft | 433 kts | 294° |
| 2026-04-18 09:58 | 47.49263 | 17.09971 | 38214 ft | 433 kts | 294° |
| 2026-04-18 09:59 | 47.51089 | 17.01529 | 38217 ft | 432 kts | 294° |
| 2026-04-18 10:00 | 47.53843 | 16.88814 | 38200 ft | 432 kts | 293° |
| 2026-04-18 10:00 | 47.55355 | 16.81754 | 38216 ft | 431 kts | 292° |
| 2026-04-18 10:01 | 47.57511 | 16.71929 | 38237 ft | 429 kts | 295° |
| 2026-04-18 10:01 | 47.59339 | 16.65100 | 38237 ft | 427 kts | 298° |
| 2026-04-18 10:02 | 47.61677 | 16.57013 | 38223 ft | 427 kts | 298° |
| 2026-04-18 10:02 | 47.63959 | 16.48887 | 38228 ft | 427 kts | 297° |
| 2026-04-18 10:03 | 47.66159 | 16.40743 | 38231 ft | 427 kts | 296° |
| 2026-04-18 10:03 | 47.68350 | 16.32537 | 38230 ft | 427 kts | 296° |
| 2026-04-18 10:04 | 47.70545 | 16.24318 | 38228 ft | 427 kts | 297° |
| 2026-04-18 10:04 | 47.72728 | 16.16155 | 38197 ft | 427 kts | 296° |
| 2026-04-18 10:05 | 47.74925 | 16.07936 | 38217 ft | 427 kts | 296° |
| 2026-04-18 10:05 | 47.77096 | 15.99753 | 38218 ft | 427 kts | 296° |
| 2026-04-18 10:06 | 47.79276 | 15.91509 | 38221 ft | 427 kts | 296° |
| 2026-04-18 10:06 | 47.81431 | 15.83314 | 38225 ft | 427 kts | 296° |
| 2026-04-18 10:07 | 47.83599 | 15.75070 | 38202 ft | 426 kts | 295° |
| 2026-04-18 10:07 | 47.85753 | 15.66879 | 38205 ft | 427 kts | 295° |
| 2026-04-18 10:08 | 47.87906 | 15.58607 | 38207 ft | 427 kts | 295° |
| 2026-04-18 10:08 | 47.90049 | 15.50316 | 38208 ft | 428 kts | 295° |
| 2026-04-18 10:09 | 47.92180 | 15.42086 | 38210 ft | 428 kts | 295° |
| 2026-04-18 10:09 | 47.94326 | 15.33785 | 38191 ft | 428 kts | 294° |
| 2026-04-18 10:10 | 47.96444 | 15.25534 | 38196 ft | 428 kts | 294° |
| 2026-04-18 10:10 | 47.98583 | 15.17206 | 38201 ft | 429 kts | 294° |
| 2026-04-18 10:11 | 48.00710 | 15.08907 | 38199 ft | 429 kts | 294° |
| 2026-04-18 10:11 | 48.02834 | 15.00552 | 38188 ft | 429 kts | 293° |
| 2026-04-18 10:12 | 48.04937 | 14.92239 | 38194 ft | 430 kts | 293° |
| 2026-04-18 10:12 | 48.07050 | 14.83861 | 38201 ft | 430 kts | 293° |
| 2026-04-18 10:13 | 48.09154 | 14.75491 | 38203 ft | 430 kts | 293° |
| 2026-04-18 10:13 | 48.11245 | 14.67162 | 38207 ft | 430 kts | 293° |
| 2026-04-18 10:14 | 48.13335 | 14.58781 | 38196 ft | 430 kts | 292° |
| 2026-04-18 10:14 | 48.15420 | 14.50372 | 38207 ft | 430 kts | 292° |
| 2026-04-18 10:15 | 48.17488 | 14.42030 | 38225 ft | 430 kts | 292° |
| 2026-04-18 10:15 | 48.19570 | 14.33626 | 38225 ft | 430 kts | 292° |
| 2026-04-18 10:16 | 48.21645 | 14.25198 | 38211 ft | 430 kts | 292° |
| 2026-04-18 10:16 | 48.23691 | 14.16822 | 38211 ft | 430 kts | 291° |
| 2026-04-18 10:17 | 48.25745 | 14.08389 | 38217 ft | 430 kts | 291° |
| 2026-04-18 10:17 | 48.27799 | 13.99949 | 38206 ft | 430 kts | 291° |
| 2026-04-18 10:18 | 48.29837 | 13.91558 | 38206 ft | 430 kts | 291° |
| 2026-04-18 10:18 | 48.31880 | 13.83072 | 38201 ft | 430 kts | 291° |
| 2026-04-18 10:19 | 48.33908 | 13.74624 | 38205 ft | 430 kts | 291° |
| 2026-04-18 10:19 | 48.35923 | 13.66208 | 38202 ft | 430 kts | 291° |
| 2026-04-18 10:20 | 48.37946 | 13.57722 | 38206 ft | 430 kts | 291° |
| 2026-04-18 10:20 | 48.39960 | 13.49274 | 38204 ft | 430 kts | 291° |
| 2026-04-18 10:21 | 48.41975 | 13.40790 | 38209 ft | 429 kts | 290° |
| 2026-04-18 10:21 | 48.43964 | 13.32347 | 38214 ft | 429 kts | 291° |
| 2026-04-18 10:22 | 48.46111 | 13.23999 | 38215 ft | 428 kts | 292° |
| 2026-04-18 10:22 | 48.48369 | 13.15681 | 38211 ft | 428 kts | 292° |
| 2026-04-18 10:23 | 48.50596 | 13.07362 | 38206 ft | 428 kts | 292° |
| 2026-04-18 10:23 | 48.52772 | 12.99054 | 38191 ft | 428 kts | 292° |
| 2026-04-18 10:24 | 48.54937 | 12.90715 | 38197 ft | 428 kts | 292° |
| 2026-04-18 10:24 | 48.57115 | 12.82316 | 38198 ft | 428 kts | 292° |
| 2026-04-18 10:25 | 48.59286 | 12.73932 | 38203 ft | 428 kts | 292° |
| 2026-04-18 10:25 | 48.61440 | 12.65590 | 38213 ft | 428 kts | 291° |
| 2026-04-18 10:26 | 48.63603 | 12.57187 | 38211 ft | 428 kts | 291° |
| 2026-04-18 10:26 | 48.65750 | 12.48830 | 38209 ft | 428 kts | 291° |
| 2026-04-18 10:27 | 48.67899 | 12.40402 | 38207 ft | 428 kts | 291° |
| 2026-04-18 10:27 | 48.70031 | 12.32010 | 38197 ft | 428 kts | 291° |
| 2026-04-18 10:27 | 48.71101 | 12.27793 | 37925 ft | 428 kts | 291° |
| 2026-04-18 10:28 | 48.72169 | 12.23581 | 37632 ft | 428 kts | 291° |
| 2026-04-18 10:28 | 48.73218 | 12.19415 | 37357 ft | 429 kts | 291° |
| 2026-04-18 10:28 | 48.74283 | 12.15173 | 37093 ft | 429 kts | 290° |
| 2026-04-18 10:28 | 48.75135 | 12.10816 | 36828 ft | 429 kts | 282° |
| 2026-04-18 10:29 | 48.75629 | 12.06400 | 36571 ft | 429 kts | 279° |
| 2026-04-18 10:29 | 48.76108 | 12.01927 | 36311 ft | 429 kts | 279° |
| 2026-04-18 10:29 | 48.76587 | 11.97462 | 36157 ft | 429 kts | 279° |
| 2026-04-18 10:30 | 48.77546 | 11.88537 | 36193 ft | 431 kts | 280° |
| 2026-04-18 10:30 | 48.78517 | 11.79571 | 36194 ft | 430 kts | 279° |
| 2026-04-18 10:31 | 48.79474 | 11.70608 | 36197 ft | 430 kts | 279° |
| 2026-04-18 10:31 | 48.80409 | 11.61647 | 36195 ft | 430 kts | 279° |
| 2026-04-18 10:32 | 48.81335 | 11.52705 | 36192 ft | 431 kts | 279° |
| 2026-04-18 10:32 | 48.82262 | 11.43686 | 36191 ft | 431 kts | 279° |
| 2026-04-18 10:33 | 48.83173 | 11.34756 | 36193 ft | 430 kts | 278° |
| 2026-04-18 10:33 | 48.84453 | 11.25880 | 36187 ft | 430 kts | 290° |
| 2026-04-18 10:34 | 48.87477 | 11.18059 | 36193 ft | 433 kts | 309° |
| 2026-04-18 10:34 | 48.91825 | 11.11750 | 36188 ft | 435 kts | 315° |
| 2026-04-18 10:35 | 48.96304 | 11.05503 | 36191 ft | 435 kts | 315° |
| 2026-04-18 10:35 | 49.00738 | 10.99274 | 36196 ft | 436 kts | 315° |
| 2026-04-18 10:36 | 49.05191 | 10.92989 | 36035 ft | 436 kts | 315° |
| 2026-04-18 10:36 | 49.07419 | 10.89845 | 35782 ft | 436 kts | 315° |
| 2026-04-18 10:36 | 49.09654 | 10.86694 | 35531 ft | 436 kts | 315° |
| 2026-04-18 10:36 | 49.11893 | 10.83541 | 35269 ft | 437 kts | 315° |
| 2026-04-18 10:37 | 49.14129 | 10.80388 | 35042 ft | 437 kts | 315° |
| 2026-04-18 10:37 | 49.16341 | 10.77260 | 34766 ft | 438 kts | 315° |
| 2026-04-18 10:37 | 49.18582 | 10.74085 | 33844 ft | 442 kts | 315° |
| 2026-04-18 10:37 | 49.20834 | 10.70840 | 32757 ft | 446 kts | 313° |
| 2026-04-18 10:38 | 49.23044 | 10.67478 | 31734 ft | 449 kts | 312° |
| 2026-04-18 10:38 | 49.25223 | 10.64027 | 30672 ft | 452 kts | 311° |
| 2026-04-18 10:38 | 49.27402 | 10.60501 | 29439 ft | 458 kts | 311° |
| 2026-04-18 10:38 | 49.29595 | 10.56940 | 28184 ft | 460 kts | 311° |
| 2026-04-18 10:39 | 49.31771 | 10.53428 | 27008 ft | 455 kts | 312° |
| 2026-04-18 10:39 | 49.33938 | 10.49970 | 25805 ft | 442 kts | 313° |
| 2026-04-18 10:39 | 49.36011 | 10.46555 | 24678 ft | 430 kts | 308° |
| 2026-04-18 10:39 | 49.37789 | 10.42939 | 23245 ft | 431 kts | 304° |
| 2026-04-18 10:40 | 49.39547 | 10.39129 | 22491 ft | 440 kts | 304° |
| 2026-04-18 10:40 | 49.41323 | 10.35235 | 22218 ft | 444 kts | 304° |
| 2026-04-18 10:40 | 49.43070 | 10.31377 | 21947 ft | 444 kts | 304° |
| 2026-04-18 10:40 | 49.44827 | 10.27491 | 21703 ft | 442 kts | 304° |
| 2026-04-18 10:41 | 49.46579 | 10.23619 | 21448 ft | 440 kts | 304° |
| 2026-04-18 10:41 | 49.48325 | 10.19765 | 21035 ft | 438 kts | 304° |
| 2026-04-18 10:41 | 49.50069 | 10.15922 | 20579 ft | 435 kts | 304° |
| 2026-04-18 10:41 | 49.51796 | 10.12114 | 20133 ft | 432 kts | 304° |
| 2026-04-18 10:42 | 49.53506 | 10.08333 | 19706 ft | 429 kts | 304° |
| 2026-04-18 10:42 | 49.55206 | 10.04554 | 19261 ft | 427 kts | 304° |
| 2026-04-18 10:42 | 49.56892 | 10.00795 | 18829 ft | 425 kts | 304° |
| 2026-04-18 10:42 | 49.58567 | 9.97066 | 18381 ft | 422 kts | 304° |
| 2026-04-18 10:43 | 49.60239 | 9.93353 | 17925 ft | 420 kts | 304° |
| 2026-04-18 10:43 | 49.61901 | 9.89664 | 17501 ft | 417 kts | 304° |
| 2026-04-18 10:43 | 49.63528 | 9.86046 | 17073 ft | 414 kts | 304° |
| 2026-04-18 10:43 | 49.65160 | 9.82411 | 16659 ft | 411 kts | 304° |
| 2026-04-18 10:44 | 49.66783 | 9.78783 | 16237 ft | 409 kts | 304° |
| 2026-04-18 10:44 | 49.68389 | 9.75170 | 15824 ft | 407 kts | 303° |
| 2026-04-18 10:44 | 49.69988 | 9.71568 | 15413 ft | 405 kts | 303° |
| 2026-04-18 10:44 | 49.71574 | 9.67989 | 14996 ft | 403 kts | 303° |
| 2026-04-18 10:45 | 49.73155 | 9.64420 | 14586 ft | 401 kts | 303° |
| 2026-04-18 10:45 | 49.74730 | 9.60872 | 14177 ft | 399 kts | 303° |
| 2026-04-18 10:45 | 49.76297 | 9.57338 | 13751 ft | 397 kts | 303° |
| 2026-04-18 10:45 | 49.77857 | 9.53815 | 13342 ft | 395 kts | 303° |
| 2026-04-18 10:46 | 49.79375 | 9.50391 | 13042 ft | 383 kts | 303° |
| 2026-04-18 10:46 | 49.80854 | 9.47052 | 12907 ft | 365 kts | 303° |
| 2026-04-18 10:46 | 49.82251 | 9.43894 | 12772 ft | 342 kts | 303° |
| 2026-04-18 10:46 | 49.83542 | 9.40973 | 12640 ft | 314 kts | 303° |
| 2026-04-18 10:47 | 49.84722 | 9.38294 | 12362 ft | 296 kts | 303° |
| 2026-04-18 10:47 | 49.85815 | 9.35622 | 11771 ft | 290 kts | 296° |
| 2026-04-18 10:47 | 49.86617 | 9.32776 | 11129 ft | 286 kts | 287° |
| 2026-04-18 10:47 | 49.87184 | 9.29827 | 10521 ft | 284 kts | 285° |
| 2026-04-18 10:48 | 49.87742 | 9.26910 | 10029 ft | 282 kts | 285° |
| 2026-04-18 10:48 | 49.88303 | 9.24004 | 9504 ft | 278 kts | 285° |
| 2026-04-18 10:48 | 49.88845 | 9.21203 | 8991 ft | 271 kts | 285° |
| 2026-04-18 10:48 | 49.89380 | 9.18424 | 8466 ft | 266 kts | 284° |
| 2026-04-18 10:49 | 49.89905 | 9.15686 | 7956 ft | 263 kts | 284° |
| 2026-04-18 10:49 | 49.90420 | 9.12973 | 7459 ft | 263 kts | 284° |
| 2026-04-18 10:49 | 49.90940 | 9.10215 | 6975 ft | 268 kts | 284° |
| 2026-04-18 10:49 | 49.91465 | 9.07438 | 6612 ft | 266 kts | 284° |
| 2026-04-18 10:50 | 49.91980 | 9.04706 | 6356 ft | 260 kts | 284° |
| 2026-04-18 10:50 | 49.92477 | 9.02064 | 6106 ft | 257 kts | 284° |
| 2026-04-18 10:50 | 49.92977 | 8.99405 | 5851 ft | 255 kts | 284° |
| 2026-04-18 10:50 | 49.93475 | 8.96762 | 5597 ft | 253 kts | 285° |
| 2026-04-18 10:51 | 49.93801 | 8.95024 | 5429 ft | 252 kts | 285° |
| 2026-04-18 10:51 | 49.94530 | 8.91600 | 5089 ft | 251 kts | 296° |
| 2026-04-18 10:51 | 49.95610 | 8.89471 | 4851 ft | 252 kts | 318° |
| 2026-04-18 10:51 | 49.96580 | 8.88461 | 4659 ft | 253 kts | 332° |
| 2026-04-18 10:52 | 49.98268 | 8.87699 | 4419 ft | 255 kts | 353° |
| 2026-04-18 10:52 | 50.00035 | 8.87941 | 4165 ft | 256 kts | 15° |
| 2026-04-18 10:52 | 50.01618 | 8.89195 | 4005 ft | 258 kts | 38° |
| 2026-04-18 10:52 | 50.02791 | 8.91291 | 4001 ft | 260 kts | 60° |
| 2026-04-18 10:53 | 50.03475 | 8.93869 | 4002 ft | 261 kts | 70° |
| 2026-04-18 10:53 | 50.04284 | 8.96370 | 3996 ft | 259 kts | 48° |
| 2026-04-18 10:53 | 50.05724 | 8.97993 | 3996 ft | 255 kts | 18° |
| 2026-04-18 10:53 | 50.07455 | 8.98281 | 3996 ft | 247 kts | 348° |
| 2026-04-18 10:54 | 50.09019 | 8.97464 | 3995 ft | 231 kts | 332° |
| 2026-04-18 10:54 | 50.10229 | 8.95906 | 3994 ft | 226 kts | 308° |
| 2026-04-18 10:54 | 50.11042 | 8.93832 | 3996 ft | 221 kts | 290° |
| 2026-04-18 10:54 | 50.11369 | 8.91583 | 3995 ft | 206 kts | 273° |
| 2026-04-18 10:55 | 50.11248 | 8.89433 | 3994 ft | 194 kts | 256° |
| 2026-04-18 10:55 | 50.10819 | 8.87498 | 4010 ft | 185 kts | 251° |
| 2026-04-18 10:55 | 50.10384 | 8.85635 | 3913 ft | 185 kts | 251° |
| 2026-04-18 10:55 | 50.09945 | 8.83756 | 3710 ft | 184 kts | 251° |
| 2026-04-18 10:56 | 50.09504 | 8.81882 | 3484 ft | 184 kts | 251° |
| 2026-04-18 10:56 | 50.09063 | 8.80012 | 3235 ft | 184 kts | 251° |
| 2026-04-18 10:56 | 50.08622 | 8.78139 | 2972 ft | 184 kts | 251° |
| 2026-04-18 10:56 | 50.08178 | 8.76262 | 2731 ft | 183 kts | 251° |
| 2026-04-18 10:57 | 50.07755 | 8.74473 | 2479 ft | 174 kts | 251° |
| 2026-04-18 10:57 | 50.07352 | 8.72766 | 2267 ft | 162 kts | 250° |
| 2026-04-18 10:57 | 50.06978 | 8.71187 | 2064 ft | 148 kts | 251° |
| 2026-04-18 10:57 | 50.06633 | 8.69727 | 1864 ft | 141 kts | 251° |
| 2026-04-18 10:58 | 50.06296 | 8.68307 | 1675 ft | 139 kts | 251° |
| 2026-04-18 10:58 | 50.05963 | 8.66901 | 1487 ft | 138 kts | 250° |
| 2026-04-18 10:58 | 50.05631 | 8.65504 | 1304 ft | 138 kts | 250° |
| 2026-04-18 10:58 | 50.05296 | 8.64098 | 1132 ft | 139 kts | 250° |
| 2026-04-18 10:59 | 50.04958 | 8.62682 | 943 ft | 140 kts | 251° |
| 2026-04-18 10:59 | 50.04619 | 8.61258 | 770 ft | 141 kts | 251° |
| 2026-04-18 10:59 | 50.04278 | 8.59816 | 583 ft | 142 kts | 252° |
| 2026-04-18 10:59 | 50.03940 | 8.58366 | 402 ft | 142 kts | 251° |
| 2026-04-18 11:00 | 50.03619 | 8.57017 | 359 ft | 120 kts | 250° |
| 2026-04-18 11:00 | 50.03384 | 8.56047 | 354 ft | 71 kts | 249° |
| 2026-04-18 11:00 | 50.03314 | 8.55703 | 350 ft | 25 kts | 264° |
| 2026-04-18 11:00 | 50.03315 | 8.55492 | 343 ft | 17 kts | 278° |
| 2026-04-18 11:01 | 50.03329 | 8.55362 | 343 ft | 10 kts | 279° |
| 2026-04-18 11:01 | 50.03340 | 8.55261 | 342 ft | 9 kts | 279° |
| 2026-04-18 11:01 | 50.03350 | 8.55167 | 347 ft | 8 kts | 279° |
| 2026-04-18 11:02 | 50.03369 | 8.54996 | 342 ft | 10 kts | 276° |
| 2026-04-18 11:02 | 50.03349 | 8.54870 | 339 ft | 12 kts | 249° |
| 2026-04-18 11:02 | 50.03318 | 8.54743 | 335 ft | 12 kts | 249° |
| 2026-04-18 11:02 | 50.03287 | 8.54619 | 334 ft | 12 kts | 249° |
| 2026-04-18 11:03 | 50.03283 | 8.54503 | 335 ft | 10 kts | 310° |
| 2026-04-18 11:03 | 50.03324 | 8.54474 | 335 ft | 4 kts | 340° |
| 2026-04-18 11:03 | 50.03337 | 8.54467 | 338 ft | 0 kts | 340° |
| 2026-04-18 11:04 | 50.03341 | 8.54464 | 338 ft | 3 kts | 340° |
| 2026-04-18 11:04 | 50.03387 | 8.54439 | 338 ft | 11 kts | 339° |
| 2026-04-18 11:05 | 50.03454 | 8.54399 | 349 ft | 11 kts | 340° |
| 2026-04-18 11:05 | 50.03540 | 8.54350 | 349 ft | 15 kts | 340° |
| 2026-04-18 11:05 | 50.03619 | 8.54305 | 348 ft | 11 kts | 343° |
| 2026-04-18 11:05 | 50.03672 | 8.54377 | 347 ft | 12 kts | 67° |
| 2026-04-18 11:06 | 50.03706 | 8.54505 | 344 ft | 13 kts | 68° |
| 2026-04-18 11:06 | 50.03737 | 8.54638 | 350 ft | 13 kts | 76° |
| 2026-04-18 11:06 | 50.03767 | 8.54772 | 351 ft | 13 kts | 70° |
| 2026-04-18 11:06 | 50.03798 | 8.54906 | 357 ft | 10 kts | 70° |
| 2026-04-18 11:07 | 50.03823 | 8.55013 | 354 ft | 11 kts | 69° |
| 2026-04-18 11:07 | 50.03853 | 8.55134 | 355 ft | 13 kts | 69° |
| 2026-04-18 11:07 | 50.03887 | 8.55271 | 356 ft | 14 kts | 68° |
| 2026-04-18 11:07 | 50.03918 | 8.55406 | 351 ft | 13 kts | 70° |
| 2026-04-18 11:08 | 50.03951 | 8.55545 | 351 ft | 15 kts | 70° |
| 2026-04-18 11:08 | 50.03990 | 8.55707 | 352 ft | 16 kts | 69° |
| 2026-04-18 11:08 | 50.04030 | 8.55877 | 357 ft | 17 kts | 70° |
| 2026-04-18 11:08 | 50.04074 | 8.56057 | 357 ft | 18 kts | 69° |
| 2026-04-18 11:09 | 50.04112 | 8.56218 | 358 ft | 14 kts | 70° |
| 2026-04-18 11:09 | 50.04170 | 8.56281 | 362 ft | 11 kts | 346° |
| 2026-04-18 11:09 | 50.04245 | 8.56238 | 358 ft | 12 kts | 339° |
| 2026-04-18 11:09 | 50.04289 | 8.56143 | 355 ft | 13 kts | 268° |
| 2026-04-18 11:10 | 50.04347 | 8.56054 | 357 ft | 13 kts | 340° |
| 2026-04-18 11:10 | 50.04412 | 8.56020 | 362 ft | 8 kts | 1° |
| 2026-04-18 11:10 | 50.04446 | 8.56091 | 360 ft | 7 kts | 70° |
| 2026-04-18 11:10 | 50.04465 | 8.56172 | 360 ft | 9 kts | 69° |
| 2026-04-18 11:11 | 50.04484 | 8.56225 | 360 ft | 5 kts | 35° |
| 2026-04-18 11:11 | 50.04516 | 8.56212 | 360 ft | 5 kts | 335° |
| 2026-04-18 11:11 | 50.04529 | 8.56208 | 360 ft | 1 kts | 4° |
| 2026-04-18 11:11 | 50.04537 | 8.56219 | 359 ft | 2 kts | 37° |
| 2026-04-18 11:12 | 50.04540 | 8.56223 | 360 ft | 0 kts | 38° |